Time;durP1;ratioP1;P1;durP2;ratioP2;P2;SDS_P1;SDS_P2;PMS_P1;PMS_P2;Temp;Humidity;BMP_temperature;BMP_pressure;BME280_temperature;BME280_humidity;BME280_pressure;Samples;Min_cycle;Max_cycle;Signal;HPM_P1;HPM_P2
2020/12/03 00:00:37;;;;;;;14.35;2.17;;;;;;;9.21;55.96;98544.63;4980180;28;20035;-74
2020/12/03 00:03:29;;;;;;;14.43;1.85;;;;;;;8.91;56.75;98544.34;4984157;28;20064;-76
2020/12/03 00:06:14;;;;;;;16.50;2.30;;;;;;;8.74;57.38;98535.97;4985606;28;20058;-74
2020/12/03 00:08:44;;;;;;;11.45;2.70;;;;;;;8.94;56.72;98528.66;4973785;28;20030;-74
2020/12/03 00:11:10;;;;;;;15.80;2.28;;;;;;;9.21;56.08;98524.63;5043611;28;20127;-74
2020/12/03 00:13:36;;;;;;;17.40;2.42;;;;;;;8.94;56.13;98510.41;5033715;28;20040;-73
2020/12/03 00:16:04;;;;;;;15.15;2.85;;;;;;;8.68;57.73;98510.06;5048876;28;20046;-75
2020/12/03 00:18:34;;;;;;;19.95;2.65;;;;;;;8.97;57.21;98509.50;5043042;28;20766;-73
2020/12/03 00:21:01;;;;;;;20.35;2.92;;;;;;;9.02;56.76;98494.63;5045066;28;20076;-73
2020/12/03 00:23:31;;;;;;;13.07;2.13;;;;;;;9.16;56.33;98488.22;5035097;28;20120;-74
2020/12/03 00:25:58;;;;;;;32.08;2.88;;;;;;;9.13;56.63;98477.03;5025756;28;20039;-73
2020/12/03 00:28:33;;;;;;;17.73;2.45;;;;;;;9.13;56.90;98470.06;5028706;28;20056;-75
2020/12/03 00:30:59;;;;;;;23.02;2.85;;;;;;;9.14;56.45;98455.31;5036236;28;20041;-74
2020/12/03 00:33:25;;;;;;;17.00;2.55;;;;;;;9.39;55.79;98438.25;5019691;28;20396;-75
2020/12/03 00:35:52;;;;;;;14.88;2.63;;;;;;;8.86;57.04;98435.94;5018000;28;20041;-76
2020/12/03 00:38:22;;;;;;;21.23;2.15;;;;;;;9.14;56.30;98424.03;5045962;28;20095;-75
2020/12/03 00:40:48;;;;;;;15.18;1.95;;;;;;;9.04;57.20;98420.78;5034792;28;20033;-75
2020/12/03 00:43:16;;;;;;;13.50;2.55;;;;;;;9.32;56.04;98421.00;5036720;28;20037;-74
2020/12/03 00:45:46;;;;;;;11.38;2.03;;;;;;;9.06;56.96;98415.53;5036295;28;21283;-74
2020/12/03 00:48:13;;;;;;;10.80;2.25;;;;;;;9.05;57.21;98411.22;5036059;28;20029;-76
2020/12/03 00:50:39;;;;;;;17.80;2.58;;;;;;;8.64;58.08;98393.84;5037527;28;20113;-73
2020/12/03 00:53:04;;;;;;;20.85;2.47;;;;;;;9.37;56.01;98393.09;5037381;28;20135;-75
2020/12/03 00:55:30;;;;;;;17.45;2.72;;;;;;;8.95;57.33;98386.25;5035886;28;20106;-72
2020/12/03 00:57:59;;;;;;;11.73;1.98;;;;;;;9.00;57.38;98384.41;5033641;28;20065;-73
2020/12/03 01:00:25;;;;;;;20.00;2.63;;;;;;;8.50;58.83;98372.44;5037733;28;20060;-75
2020/12/03 01:02:50;;;;;;;16.90;2.05;;;;;;;8.75;57.72;98371.06;5028017;28;20054;-75
2020/12/03 01:05:18;;;;;;;12.60;2.25;;;;;;;8.56;58.60;98372.31;5034626;28;20043;-75
2020/12/03 01:07:44;;;;;;;20.90;2.20;;;;;;;8.89;57.74;98369.00;5035296;28;20029;-74
2020/12/03 01:10:31;;;;;;;11.02;2.30;;;;;;;8.48;59.27;98369.03;5038332;28;20063;-75
2020/12/03 01:12:59;;;;;;;15.25;2.17;;;;;;;8.49;59.42;98361.16;5033192;28;20488;-74
2020/12/03 01:15:25;;;;;;;18.80;3.22;;;;;;;7.94;61.16;98355.31;5015725;28;21297;-75
2020/12/03 01:17:52;;;;;;;14.82;3.13;;;;;;;8.35;59.95;98337.19;5036882;28;20036;-74
2020/12/03 01:20:23;;;;;;;15.38;2.85;;;;;;;8.35;60.14;98355.38;5021710;28;20119;-73
2020/12/03 01:22:49;;;;;;;16.08;3.47;;;;;;;8.49;59.98;98342.13;5020283;28;20047;-75
2020/12/03 01:25:19;;;;;;;15.27;3.00;;;;;;;8.12;60.76;98350.63;5054793;28;20037;-77
2020/12/03 01:27:45;;;;;;;18.00;3.50;;;;;;;8.31;60.46;98351.13;5038513;28;20060;-76
2020/12/03 01:30:10;;;;;;;13.27;3.78;;;;;;;8.14;61.42;98351.44;5039260;28;20063;-74
2020/12/03 01:32:36;;;;;;;15.63;4.07;;;;;;;8.29;60.98;98346.00;5041698;28;20090;-73
2020/12/03 01:35:07;;;;;;;11.40;3.78;;;;;;;8.20;61.28;98330.50;5060413;28;20154;-75
2020/12/03 01:37:33;;;;;;;17.95;4.13;;;;;;;8.43;60.89;98313.63;5043237;28;20037;-75
2020/12/03 01:39:59;;;;;;;18.83;4.38;;;;;;;8.22;61.43;98310.53;5044326;28;20058;-75
2020/12/03 01:42:24;;;;;;;14.48;4.88;;;;;;;8.43;60.97;98295.41;5042215;28;20118;-75
2020/12/03 01:44:53;;;;;;;21.08;4.93;;;;;;;7.95;62.14;98272.06;5047188;28;20064;-75
2020/12/03 01:47:37;;;;;;;17.75;4.50;;;;;;;8.38;61.06;98279.03;5054763;28;20029;-76
2020/12/03 01:50:07;;;;;;;17.33;4.70;;;;;;;8.28;61.26;98265.31;5064106;28;20033;-75
2020/12/03 01:52:34;;;;;;;14.43;4.53;;;;;;;9.03;59.30;98262.75;5020383;28;20033;-76
2020/12/03 01:55:00;;;;;;;20.98;5.15;;;;;;;8.65;60.55;98254.97;5042882;28;20541;-75
2020/12/03 01:57:34;;;;;;;11.95;5.25;;;;;;;8.56;60.45;98240.44;5031077;28;20132;-75
2020/12/03 02:00:08;;;;;;;21.02;5.95;;;;;;;9.08;58.55;98242.66;5045191;28;20068;-75
2020/12/03 02:02:34;;;;;;;17.92;5.50;;;;;;;8.48;60.68;98252.78;5037866;28;20048;-77
2020/12/03 02:05:14;;;;;;;25.55;6.03;;;;;;;8.96;59.76;98234.31;5032390;28;20152;-76
2020/12/03 02:07:41;;;;;;;18.10;4.50;;;;;;;9.05;58.91;98236.69;5049330;28;20036;-76
2020/12/03 02:10:08;;;;;;;12.45;4.32;;;;;;;8.85;59.33;98229.34;5065212;28;20032;-76
2020/12/03 02:12:34;;;;;;;15.23;4.00;;;;;;;9.13;59.06;98201.72;5030237;28;20219;-75
2020/12/03 02:15:06;;;;;;;14.85;3.38;;;;;;;8.83;59.76;98196.41;5039010;28;20484;-76
2020/12/03 02:17:32;;;;;;;15.47;4.17;;;;;;;8.68;60.03;98203.69;5043446;28;20101;-76
2020/12/03 02:20:00;;;;;;;11.43;3.10;;;;;;;8.49;60.60;98204.19;5020745;28;20774;-76
2020/12/03 02:22:26;;;;;;;13.20;2.75;;;;;;;8.77;59.95;98197.44;5027804;28;20036;-76
2020/12/03 02:24:52;;;;;;;16.83;3.38;;;;;;;8.98;59.19;98183.00;5037061;28;20119;-77
2020/12/03 02:27:21;;;;;;;13.38;3.70;;;;;;;9.08;58.78;98176.69;5027529;28;20037;-76
2020/12/03 02:29:46;;;;;;;12.95;3.60;;;;;;;8.95;59.55;98170.09;5035857;28;20456;-76
2020/12/03 02:32:12;;;;;;;11.65;4.03;;;;;;;8.58;60.89;98173.59;5043874;28;20081;-75
2020/12/03 02:34:39;;;;;;;25.77;4.53;;;;;;;8.96;59.78;98153.56;5031911;28;20043;-76
2020/12/03 02:37:06;;;;;;;11.27;4.40;;;;;;;9.15;58.97;98153.06;5028610;28;20032;-77
2020/12/03 02:39:33;;;;;;;14.32;3.78;;;;;;;8.93;59.42;98151.88;5067084;28;20063;-78
2020/12/03 02:42:00;;;;;;;12.90;3.92;;;;;;;8.79;59.86;98137.50;5038131;28;20037;-76
2020/12/03 02:44:26;;;;;;;14.98;4.22;;;;;;;8.94;59.32;98119.75;5043840;28;20155;-76
2020/12/03 02:46:52;;;;;;;13.65;4.50;;;;;;;8.64;60.09;98125.72;5043014;28;20429;-76
2020/12/03 02:49:18;;;;;;;14.50;5.40;;;;;;;9.07;59.21;98107.22;5041699;28;20101;-76
2020/12/03 02:51:44;;;;;;;19.23;5.38;;;;;;;8.90;59.63;98099.03;5045477;28;20605;-76
2020/12/03 02:54:13;;;;;;;18.90;4.97;;;;;;;8.71;60.05;98099.50;5056841;28;20111;-76
2020/12/03 02:56:39;;;;;;;19.13;5.40;;;;;;;8.69;60.03;98085.66;5051698;28;20073;-75
2020/12/03 02:59:07;;;;;;;14.55;5.10;;;;;;;8.13;61.83;98073.16;5031071;28;20094;-77
2020/12/03 03:01:33;;;;;;;17.50;4.80;;;;;;;8.60;60.20;98072.88;5024905;28;20036;-76
2020/12/03 03:04:03;;;;;;;15.02;4.40;;;;;;;8.66;59.47;98072.72;5049481;28;20127;-75
2020/12/03 03:06:29;;;;;;;13.63;4.38;;;;;;;8.69;60.11;98056.16;5041437;28;20036;-76
2020/12/03 03:08:57;;;;;;;12.40;3.75;;;;;;;8.47;nan;98042.88;5029247;28;20035;-75
2020/12/03 03:11:23;;;;;;;15.50;4.28;;;;;;;8.64;60.13;98042.41;5065135;28;20555;-76
2020/12/03 03:13:48;;;;;;;15.93;3.47;;;;;;;9.10;58.79;98032.47;4999900;28;20058;-76
2020/12/03 03:16:14;;;;;;;11.50;3.10;;;;;;;8.55;nan;98040.06;5020798;28;20112;-76
2020/12/03 03:18:39;;;;;;;12.93;3.95;;;;;;;8.78;60.17;98044.69;5001118;28;20052;-77
2020/12/03 03:21:07;;;;;;;12.80;3.55;;;;;;;9.04;58.80;98032.66;5026002;28;20129;-77
2020/12/03 03:23:33;;;;;;;13.60;4.07;;;;;;;9.24;58.11;98021.66;5004905;28;20049;-75
2020/12/03 03:25:58;;;;;;;11.93;4.18;;;;;;;8.91;59.22;98013.06;4991502;28;20041;-77
2020/12/03 03:28:24;;;;;;;16.77;4.07;;;;;;;8.69;59.99;97998.91;5006082;28;20038;-76
2020/12/03 03:30:49;;;;;;;12.20;4.80;;;;;;;8.49;60.63;97989.00;5008580;28;20049;-76
2020/12/03 03:33:15;;;;;;;10.52;5.10;;;;;;;8.47;60.92;97989.97;5002901;28;20087;-76
2020/12/03 03:35:41;;;;;;;10.60;4.75;;;;;;;8.62;60.10;97990.41;5019914;28;20491;-75
2020/12/03 03:38:06;;;;;;;14.90;5.75;;;;;;;8.35;61.28;97988.50;4986998;28;20036;-76
2020/12/03 03:40:32;;;;;;;16.95;6.45;;;;;;;8.69;60.29;97970.25;5008060;28;20132;-76
2020/12/03 03:42:57;;;;;;;19.63;6.60;;;;;;;8.50;60.40;97962.09;4989810;28;20124;-75
2020/12/03 03:45:23;;;;;;;16.58;5.60;;;;;;;8.50;60.93;97943.88;5033793;28;20071;-76
2020/12/03 03:47:49;;;;;;;14.27;5.72;;;;;;;8.44;61.51;97946.63;5065997;28;20028;-76
2020/12/03 03:50:14;;;;;;;19.48;5.25;;;;;;;7.97;62.62;97942.63;5040659;28;20144;-76
2020/12/03 03:52:40;;;;;;;14.27;4.80;;;;;;;8.01;63.09;97941.66;5065771;28;20089;-75
2020/12/03 03:55:06;;;;;;;13.48;4.10;;;;;;;8.01;63.00;97931.25;5028254;28;20136;-76
2020/12/03 03:57:32;;;;;;;14.57;4.72;;;;;;;7.97;62.66;97920.97;5067077;28;20106;-76
2020/12/03 03:59:58;;;;;;;11.85;3.58;;;;;;;8.46;61.67;97916.25;5037830;28;20033;-76
2020/12/03 04:02:25;;;;;;;9.18;2.58;;;;;;;7.96;63.25;97901.09;5050964;28;20048;-75
2020/12/03 04:04:52;;;;;;;11.88;2.33;;;;;;;8.20;63.01;97906.50;5042464;28;20044;-76
2020/12/03 04:07:18;;;;;;;14.52;2.40;;;;;;;8.27;62.83;97902.84;5049537;28;20067;-76
2020/12/03 04:09:46;;;;;;;6.53;2.10;;;;;;;8.31;62.74;97906.25;5055716;28;20383;-77
2020/12/03 04:12:12;;;;;;;5.63;2.08;;;;;;;8.03;63.64;97897.44;5032340;28;20477;-75
2020/12/03 04:14:38;;;;;;;10.35;1.75;;;;;;;8.15;63.40;97891.94;5046488;28;20032;-76
2020/12/03 04:17:03;;;;;;;8.35;1.95;;;;;;;8.04;64.14;97883.53;5041974;28;20132;-77
2020/12/03 04:19:29;;;;;;;3.08;1.92;;;;;;;8.08;63.40;97875.63;5044274;28;20029;-75
2020/12/03 04:21:54;;;;;;;10.20;3.30;;;;;;;7.70;64.67;97860.16;5016261;28;20037;-76
2020/12/03 04:24:20;;;;;;;12.00;4.13;;;;;;;7.81;64.59;97842.56;5044998;28;20488;-77
2020/12/03 04:26:46;;;;;;;7.07;4.10;;;;;;;7.75;64.59;97834.91;5044119;28;20078;-76
2020/12/03 04:29:14;;;;;;;11.40;4.13;;;;;;;7.85;64.10;97820.78;5045278;28;20029;-77
2020/12/03 04:31:44;;;;;;;13.23;4.43;;;;;;;8.06;64.00;97814.97;5033975;28;20061;-76
2020/12/03 04:34:11;;;;;;;9.30;4.22;;;;;;;8.17;63.37;97812.94;5040243;28;20033;-77
2020/12/03 04:36:37;;;;;;;6.90;4.05;;;;;;;8.03;64.10;97809.00;5041243;28;20064;-76
2020/12/03 04:39:05;;;;;;;6.35;4.47;;;;;;;7.83;64.28;97796.56;5044351;28;20064;-75
2020/12/03 04:41:30;;;;;;;7.68;3.38;;;;;;;7.86;64.37;97789.50;5046854;28;20350;-76
2020/12/03 04:43:59;;;;;;;9.93;2.65;;;;;;;8.09;63.65;97796.72;5023714;28;20454;-77
2020/12/03 04:46:38;;;;;;;6.20;1.75;;;;;;;8.00;63.77;97788.31;5044617;28;20066;-77
2020/12/03 04:49:28;;;;;;;4.93;1.60;;;;;;;7.81;64.04;97770.63;5038976;28;20123;-75
2020/12/03 04:52:06;;;;;;;4.38;1.50;;;;;;;8.11;63.23;97762.84;5020258;28;20835;-75
2020/12/03 04:54:41;;;;;;;3.63;1.67;;;;;;;8.13;63.03;97746.31;5027377;28;20056;-75
2020/12/03 04:57:29;;;;;;;4.03;1.15;;;;;;;7.89;63.11;97732.25;5021920;28;20127;-75
2020/12/03 05:00:33;;;;;;;4.38;1.60;;;;;;;7.76;63.82;97727.44;5035431;28;20106;-75
2020/12/03 05:03:17;;;;;;;4.25;1.52;;;;;;;8.14;62.66;97722.00;5038506;28;20041;-76
2020/12/03 05:06:08;;;;;;;8.05;1.90;;;;;;;8.02;63.01;97708.50;5038639;28;20240;-76
2020/12/03 05:08:42;;;;;;;1.45;0.88;;;;;;;7.88;63.68;97717.56;5035537;28;20047;-76
2020/12/03 05:11:46;;;;;;;3.83;1.63;;;;;;;7.87;63.33;97710.63;5043438;28;20106;-77
2020/12/03 05:14:36;;;;;;;4.78;1.10;;;;;;;7.73;64.05;97696.31;4951362;28;20049;-77
2020/12/03 05:17:19;;;;;;;2.17;0.95;;;;;;;7.70;63.93;97694.69;4976354;28;20204;-75
2020/12/03 05:20:20;;;;;;;3.38;1.25;;;;;;;8.33;61.92;97683.31;4973809;28;20046;-75
2020/12/03 05:22:55;;;;;;;4.13;1.00;;;;;;;7.75;63.12;97665.97;4967836;28;20516;-76
2020/12/03 05:25:25;;;;;;;2.35;0.70;;;;;;;8.21;61.98;97661.09;4966269;28;20517;-75
2020/12/03 05:28:01;;;;;;;3.80;0.93;;;;;;;8.00;62.30;97648.75;4968929;28;20042;-76
2020/12/03 05:30:28;;;;;;;0.90;0.75;;;;;;;8.10;61.91;97649.34;4982278;28;20149;-76
2020/12/03 05:32:54;;;;;;;1.85;1.00;;;;;;;8.54;60.98;97647.97;4964796;28;20209;-75
2020/12/03 05:35:20;;;;;;;3.08;1.25;;;;;;;7.80;62.80;97649.34;4973968;28;20230;-76
2020/12/03 05:37:45;;;;;;;3.00;1.20;;;;;;;7.89;62.79;97653.41;4982843;28;20538;-76
2020/12/03 05:40:24;;;;;;;2.22;1.35;;;;;;;8.07;62.67;97654.59;4978301;28;20042;-75
2020/12/03 05:42:54;;;;;;;2.28;1.05;;;;;;;7.94;62.69;97655.88;4961462;28;20065;-75
2020/12/03 05:45:32;;;;;;;3.15;1.83;;;;;;;8.10;62.23;97631.97;4952882;28;20816;-75
2020/12/03 05:47:58;;;;;;;10.45;1.77;;;;;;;7.91;63.12;97630.84;4966648;28;20034;-73
2020/12/03 05:50:42;;;;;;;2.42;1.33;;;;;;;7.85;63.02;97621.47;5008158;28;20455;-75
2020/12/03 05:53:18;;;;;;;2.40;1.50;;;;;;;7.95;62.85;97606.44;5044331;28;20136;-76
2020/12/03 05:55:45;;;;;;;5.80;1.30;;;;;;;7.63;63.55;97603.94;5038344;28;20681;-76
2020/12/03 05:58:21;;;;;;;2.28;1.60;;;;;;;7.63;63.79;97594.38;5044487;28;20484;-75
2020/12/03 06:00:49;;;;;;;3.22;1.30;;;;;;;8.13;62.51;97597.22;5047208;28;20048;-75
2020/12/03 06:03:29;;;;;;;4.15;0.98;;;;;;;7.81;63.16;97591.25;5024043;28;20037;-77
2020/12/03 06:06:23;;;;;;;3.05;1.20;;;;;;;8.05;62.16;97584.47;5041083;28;20120;-77
2020/12/03 06:09:21;;;;;;;3.60;0.82;;;;;;;7.97;62.35;97575.19;5032888;28;20139;-76
2020/12/03 06:12:03;;;;;;;3.03;1.00;;;;;;;8.06;62.51;97572.28;5014468;28;20452;-77
2020/12/03 06:14:54;;;;;;;3.90;1.20;;;;;;;7.85;63.23;97564.28;5021872;28;20033;-75
2020/12/03 06:17:57;;;;;;;5.22;1.20;;;;;;;7.84;63.40;97562.56;5027015;28;20053;-75
2020/12/03 06:20:22;;;;;;;2.10;1.13;;;;;;;7.91;63.37;97554.59;5022459;28;20044;-75
2020/12/03 06:23:10;;;;;;;3.42;1.10;;;;;;;7.71;63.79;97556.03;5041069;28;20041;-75
2020/12/03 06:25:50;;;;;;;5.35;1.42;;;;;;;7.93;62.82;97543.22;5024566;28;20219;-75
2020/12/03 06:28:35;;;;;;;4.93;1.35;;;;;;;8.08;62.80;97552.31;5042525;28;20040;-75
2020/12/03 06:31:19;;;;;;;6.72;1.85;;;;;;;7.63;64.30;97539.81;5018329;28;20040;-76
2020/12/03 06:33:52;;;;;;;3.88;1.00;;;;;;;7.73;63.92;97541.25;5021422;28;20029;-75
2020/12/03 06:36:25;;;;;;;3.35;1.00;;;;;;;7.79;63.58;97533.25;5043081;28;20206;-76
2020/12/03 06:39:45;;;;;;;2.10;0.90;;;;;;;7.94;62.60;97529.34;5042295;28;20448;-75
2020/12/03 06:42:29;;;;;;;6.65;2.05;;;;;;;7.94;62.55;97518.09;4987573;28;20368;-76
2020/12/03 06:45:00;;;;;;;4.45;1.20;;;;;;;7.96;62.75;97513.69;4986043;28;20038;-74
2020/12/03 06:48:05;;;;;;;2.60;1.20;;;;;;;8.31;61.84;97516.88;4987235;28;20030;-76
2020/12/03 06:51:01;;;;;;;2.92;1.10;;;;;;;8.13;61.96;97512.25;4977898;28;20045;-75
2020/12/03 06:54:04;;;;;;;3.65;1.30;;;;;;;8.42;61.25;97502.66;4996736;28;20042;-76
2020/12/03 06:57:02;;;;;;;5.18;1.13;;;;;;;8.34;61.22;97491.66;4985866;28;20165;-76
2020/12/03 07:00:01;;;;;;;1.80;1.00;;;;;;;7.97;62.23;97497.19;4995011;28;20401;-75
2020/12/03 07:02:33;;;;;;;5.10;1.17;;;;;;;7.83;63.46;97487.22;4984785;28;20041;-73
2020/12/03 07:05:29;;;;;;;2.05;1.17;;;;;;;7.59;64.06;97481.03;4980729;28;20188;-75
2020/12/03 07:08:10;;;;;;;4.00;1.30;;;;;;;8.04;62.62;97476.16;4970184;28;20125;-76
2020/12/03 07:11:07;;;;;;;4.50;1.13;;;;;;;7.81;63.21;97463.91;4965518;28;20065;-75
2020/12/03 07:14:19;;;;;;;5.00;1.50;;;;;;;7.96;62.25;97469.50;4966934;28;20041;-75
2020/12/03 07:17:22;;;;;;;3.10;1.20;;;;;;;7.88;62.51;97464.53;4975410;28;20049;-76
2020/12/03 07:19:54;;;;;;;4.75;1.30;;;;;;;8.53;60.76;97461.53;5020503;28;20044;-75
2020/12/03 07:22:31;;;;;;;3.03;1.20;;;;;;;7.96;62.41;97453.91;5016760;28;20041;-75
2020/12/03 07:24:57;;;;;;;3.70;1.50;;;;;;;8.00;62.36;97445.94;5022300;28;20045;-75
2020/12/03 07:27:51;;;;;;;3.70;1.67;;;;;;;7.65;63.46;97448.81;5006516;28;20099;-76
2020/12/03 07:30:24;;;;;;;3.88;1.15;;;;;;;7.36;64.73;97441.94;4993328;28;20044;-76
2020/12/03 07:33:02;;;;;;;4.47;1.30;;;;;;;7.43;64.53;97431.31;5007803;28;20132;-75
2020/12/03 07:35:50;;;;;;;2.30;1.10;;;;;;;7.71;63.95;97431.31;5020169;28;20114;-78
2020/12/03 07:38:34;;;;;;;3.00;1.10;;;;;;;7.76;63.88;97432.00;4991944;28;20385;-76
2020/12/03 07:41:00;;;;;;;2.10;1.13;;;;;;;8.02;63.23;97428.53;5007975;28;20563;-76
2020/12/03 07:43:36;;;;;;;4.43;1.20;;;;;;;7.51;64.94;97423.28;5045927;28;20037;-75
2020/12/03 07:46:23;;;;;;;4.68;1.50;;;;;;;8.03;63.73;97411.19;5049166;28;20112;-76
2020/12/03 07:48:49;;;;;;;3.90;1.52;;;;;;;7.84;64.65;97411.81;5042736;28;20255;-75
2020/12/03 07:51:17;;;;;;;5.15;1.60;;;;;;;7.53;65.35;97399.88;5029708;28;20152;-78
2020/12/03 07:54:06;;;;;;;5.60;1.60;;;;;;;7.59;64.84;97407.44;5029923;28;20029;-76
2020/12/03 07:56:37;;;;;;;2.55;1.50;;;;;;;7.58;65.02;97393.59;5048915;28;20312;-75
2020/12/03 07:59:22;;;;;;;5.13;2.07;;;;;;;7.04;67.19;97379.75;5030355;28;20045;-75
2020/12/03 08:01:49;;;;;;;3.10;2.08;;;;;;;7.41;66.36;97381.16;5035167;28;20037;-76
2020/12/03 08:04:17;;;;;;;5.63;2.13;;;;;;;7.37;66.30;97373.53;5024272;28;20052;-76
2020/12/03 08:07:11;;;;;;;7.03;2.22;;;;;;;7.03;67.03;97370.25;5021149;28;20033;-79
2020/12/03 08:09:42;;;;;;;6.45;3.17;;;;;;;7.36;66.71;97361.44;5034810;28;20034;-76
2020/12/03 08:12:17;;;;;;;6.55;2.90;;;;;;;6.89;68.21;97360.31;5039248;28;20040;-75
2020/12/03 08:14:50;;;;;;;5.80;3.22;;;;;;;7.37;67.19;97352.75;5045699;28;20029;-78
2020/12/03 08:17:16;;;;;;;6.57;3.70;;;;;;;7.53;66.56;97348.72;5034178;28;20052;-75
2020/12/03 08:19:47;;;;;;;7.25;4.00;;;;;;;7.48;66.92;97344.59;5034434;28;20041;-75
2020/12/03 08:22:28;;;;;;;6.55;3.53;;;;;;;7.21;67.80;97341.13;5033883;28;20161;-76
2020/12/03 08:25:09;;;;;;;6.05;3.90;;;;;;;7.37;67.67;97342.34;5038896;28;20030;-75
2020/12/03 08:27:35;;;;;;;12.10;4.65;;;;;;;7.31;67.58;97320.03;5025615;28;20121;-75
2020/12/03 08:30:01;;;;;;;7.00;4.30;;;;;;;7.38;67.24;97318.09;5041560;28;20448;-76
2020/12/03 08:32:26;;;;;;;6.82;3.80;;;;;;;7.23;67.04;97310.78;5052110;28;20075;-75
2020/12/03 08:34:52;;;;;;;5.10;3.83;;;;;;;7.15;67.68;97299.78;5023653;28;20079;-78
2020/12/03 08:37:22;;;;;;;5.40;3.83;;;;;;;7.49;66.68;97289.13;5039321;28;20134;-76
2020/12/03 08:39:56;;;;;;;11.45;4.00;;;;;;;7.16;67.71;97291.09;5048640;28;20086;-75
2020/12/03 08:42:34;;;;;;;5.32;3.63;;;;;;;7.22;66.88;97296.09;5043970;28;20032;-75
2020/12/03 08:44:59;;;;;;;7.97;4.05;;;;;;;7.37;66.62;97286.06;5035083;28;20113;-72
2020/12/03 08:47:35;;;;;;;5.63;3.97;;;;;;;7.14;67.51;97277.31;5041710;28;20182;-72
2020/12/03 08:50:13;;;;;;;4.60;3.97;;;;;;;7.47;66.85;97273.63;5037224;28;20522;-72
2020/12/03 08:52:40;;;;;;;10.32;3.72;;;;;;;7.66;65.93;97266.91;5038853;28;20068;-73
2020/12/03 08:55:10;;;;;;;10.00;4.10;;;;;;;8.10;64.85;97257.53;5035136;28;20083;-72
2020/12/03 08:57:37;;;;;;;7.80;4.38;;;;;;;8.10;64.27;97251.47;5038890;28;20063;-74
2020/12/03 09:00:09;;;;;;;6.47;3.63;;;;;;;7.77;66.11;97250.94;5041790;28;20140;-75
2020/12/03 09:02:36;;;;;;;4.82;3.13;;;;;;;7.77;65.63;97249.16;5044235;28;20637;-73
2020/12/03 09:05:02;;;;;;;8.02;3.67;;;;;;;8.14;64.48;97237.44;5015915;28;20469;-73
2020/12/03 09:07:31;;;;;;;5.93;4.10;;;;;;;8.29;64.09;97231.69;5038390;28;20056;-75
2020/12/03 09:09:58;;;;;;;9.10;3.85;;;;;;;8.08;64.34;97224.66;5024806;28;20563;-73
2020/12/03 09:12:29;;;;;;;7.05;4.30;;;;;;;8.34;64.03;97226.34;5032171;28;20048;-74
2020/12/03 09:15:03;;;;;;;6.90;4.18;;;;;;;8.18;64.54;97210.41;5021800;28;21326;-73
2020/12/03 09:17:30;;;;;;;9.55;4.28;;;;;;;8.34;63.78;97202.91;5037720;28;20083;-73
2020/12/03 09:20:08;;;;;;;7.00;4.25;;;;;;;7.93;65.01;97202.66;5020294;28;20040;-74
2020/12/03 09:22:37;;;;;;;7.13;4.00;;;;;;;8.06;64.95;97200.47;5039749;28;20029;-75
2020/12/03 09:25:11;;;;;;;4.65;3.70;;;;;;;8.52;63.74;97192.66;5026285;28;20052;-74
2020/12/03 09:27:45;;;;;;;8.25;3.70;;;;;;;8.42;63.49;97188.72;5037971;28;20044;-73
2020/12/03 09:30:21;;;;;;;5.70;3.55;;;;;;;8.33;63.62;97181.25;5040775;28;20029;-73
2020/12/03 09:32:55;;;;;;;7.28;4.18;;;;;;;8.58;62.90;97176.81;5014812;28;20030;-72
2020/12/03 09:35:21;;;;;;;5.72;3.47;;;;;;;8.60;62.59;97167.16;5040203;28;20055;-74
2020/12/03 09:37:47;;;;;;;10.10;4.78;;;;;;;8.70;62.95;97160.69;5033336;28;20033;-73
2020/12/03 09:40:15;;;;;;;7.22;3.80;;;;;;;8.37;63.82;97159.41;5022137;28;20037;-76
2020/12/03 09:42:46;;;;;;;5.32;3.88;;;;;;;8.34;63.98;97153.50;5032920;28;20119;-76
2020/12/03 09:45:42;;;;;;;11.20;4.07;;;;;;;8.73;62.98;97144.06;5037621;28;20090;-72
2020/12/03 09:48:16;;;;;;;8.45;4.85;;;;;;;8.83;62.64;97132.38;5037294;28;20136;-75
2020/12/03 09:50:44;;;;;;;8.80;4.95;;;;;;;8.62;63.08;97128.06;5040948;28;20464;-75
2020/12/03 09:53:19;;;;;;;9.60;5.65;;;;;;;9.01;61.80;97129.03;5025254;28;20120;-75
2020/12/03 09:55:46;;;;;;;7.90;4.72;;;;;;;8.83;62.49;97118.53;5039307;28;20033;-73
2020/12/03 09:58:16;;;;;;;8.10;5.40;;;;;;;8.68;63.19;97120.03;5039542;28;20128;-74
2020/12/03 10:00:45;;;;;;;11.07;5.47;;;;;;;9.00;62.12;97103.91;5043635;28;20064;-74
2020/12/03 10:03:35;;;;;;;10.05;5.35;;;;;;;8.83;62.69;97105.50;5040761;28;20033;-73
2020/12/03 10:06:09;;;;;;;8.95;4.97;;;;;;;8.22;64.18;97095.81;5037279;28;20033;-74
2020/12/03 10:08:44;;;;;;;6.20;4.60;;;;;;;8.58;63.34;97093.53;5039218;28;20025;-73
2020/12/03 10:11:29;;;;;;;6.25;4.70;;;;;;;8.88;62.30;97082.72;5020680;28;20120;-74
2020/12/03 10:14:19;;;;;;;8.90;4.40;;;;;;;8.84;62.20;97071.59;5037248;28;20037;-74
2020/12/03 10:16:48;;;;;;;9.52;5.45;;;;;;;9.03;61.80;97071.66;5025741;28;20162;-74
2020/12/03 10:19:16;;;;;;;6.03;4.97;;;;;;;8.79;62.57;97060.53;5019974;28;20467;-73
2020/12/03 10:21:51;;;;;;;9.68;4.78;;;;;;;8.60;62.72;97060.47;5042459;28;20584;-73
2020/12/03 10:24:20;;;;;;;6.30;4.88;;;;;;;8.41;63.86;97054.31;5017729;28;20523;-74
2020/12/03 10:26:46;;;;;;;10.77;6.10;;;;;;;8.67;63.12;97048.06;5037656;28;20041;-74
2020/12/03 10:29:21;;;;;;;10.57;6.22;;;;;;;8.54;63.30;97034.69;5032671;28;20033;-74
2020/12/03 10:31:48;;;;;;;6.20;5.57;;;;;;;8.41;63.78;97028.31;5035551;28;20153;-74
2020/12/03 10:34:15;;;;;;;9.52;5.95;;;;;;;8.55;63.48;97023.38;5032023;28;20357;-74
2020/12/03 10:36:48;;;;;;;11.85;6.45;;;;;;;8.97;62.34;97010.28;5019715;28;20040;-74
2020/12/03 10:39:16;;;;;;;6.80;5.03;;;;;;;8.65;62.97;97003.88;5026079;28;20094;-75
2020/12/03 10:41:45;;;;;;;6.78;5.22;;;;;;;8.32;63.50;97007.88;5038637;28;20029;-74
2020/12/03 10:44:16;;;;;;;7.65;4.32;;;;;;;8.32;63.62;97003.53;5051999;28;20220;-75
2020/12/03 10:46:49;;;;;;;7.75;4.85;;;;;;;8.58;62.95;96989.44;5038967;28;20111;-73
2020/12/03 10:49:17;;;;;;;6.85;4.78;;;;;;;8.69;62.14;96981.16;5039032;28;20025;-74
2020/12/03 10:51:43;;;;;;;6.97;4.70;;;;;;;8.52;62.88;96976.69;5049978;28;20065;-74
2020/12/03 10:54:15;;;;;;;5.85;4.70;;;;;;;8.40;63.10;96973.75;5042333;28;20057;-75
2020/12/03 10:56:41;;;;;;;4.18;3.78;;;;;;;8.45;63.29;96974.38;5035747;28;20040;-73
2020/12/03 10:59:22;;;;;;;5.43;3.88;;;;;;;8.26;63.42;96963.88;5045513;28;20037;-72
2020/12/03 11:01:53;;;;;;;4.20;3.28;;;;;;;7.95;64.21;96958.28;5017200;28;20045;-72
2020/12/03 11:04:20;;;;;;;3.28;2.97;;;;;;;8.00;64.01;96956.31;5044115;28;20036;-75
2020/12/03 11:06:46;;;;;;;6.03;3.15;;;;;;;7.80;65.24;96944.13;5044411;28;20045;-73
2020/12/03 11:09:21;;;;;;;7.60;4.20;;;;;;;7.89;65.18;96928.16;5039529;28;20025;-73
2020/12/03 11:11:49;;;;;;;5.30;3.85;;;;;;;7.84;65.52;96936.16;5041075;28;20041;-73
2020/12/03 11:14:16;;;;;;;6.53;3.55;;;;;;;8.05;65.15;96911.03;5025674;28;20033;-75
2020/12/03 11:16:56;;;;;;;6.05;4.07;;;;;;;7.91;65.38;96908.16;5029559;28;20159;-75
2020/12/03 11:19:24;;;;;;;5.15;4.20;;;;;;;8.05;65.05;96892.84;5041083;28;20299;-74
2020/12/03 11:22:26;;;;;;;5.70;3.97;;;;;;;8.12;65.05;96886.47;5026875;28;20503;-75
2020/12/03 11:25:00;;;;;;;4.68;3.78;;;;;;;8.00;64.80;96871.38;5020862;28;20046;-74
2020/12/03 11:27:26;;;;;;;7.28;4.75;;;;;;;8.37;64.28;96868.06;5032909;28;20033;-75
2020/12/03 11:29:52;;;;;;;7.57;3.95;;;;;;;8.63;63.13;96865.16;5048992;28;20060;-76
2020/12/03 11:32:25;;;;;;;8.57;4.57;;;;;;;8.30;63.84;96859.69;5025459;28;20056;-76
2020/12/03 11:34:50;;;;;;;4.32;3.58;;;;;;;8.44;63.54;96847.84;5046393;28;20125;-74
2020/12/03 11:37:26;;;;;;;7.63;3.60;;;;;;;8.48;63.79;96841.59;5045185;28;20107;-75
2020/12/03 11:40:07;;;;;;;3.88;2.70;;;;;;;8.47;63.55;96830.34;5048841;28;20048;-75
2020/12/03 11:48:19;;;;;;;5.55;3.30;;;;;;;7.83;65.28;96804.50;5039945;28;20025;-74
2020/12/03 11:50:45;;;;;;;4.57;3.63;;;;;;;7.90;65.26;96794.72;5038909;28;20029;-73
2020/12/03 11:53:10;;;;;;;6.10;3.83;;;;;;;8.05;64.99;96794.03;5040885;28;20055;-74
2020/12/03 11:55:40;;;;;;;10.40;5.97;;;;;;;8.06;65.50;96789.66;5019680;28;20029;-74
2020/12/03 11:58:09;;;;;;;7.45;5.03;;;;;;;7.61;66.59;96776.91;5040284;28;20029;-74
2020/12/03 12:00:36;;;;;;;8.93;5.63;;;;;;;7.75;66.49;96770.22;5047933;28;20074;-74
2020/12/03 12:03:08;;;;;;;12.32;5.72;;;;;;;8.08;65.78;96761.84;5049538;28;20349;-73
2020/12/03 12:10:46;;;;;;;6.97;4.93;;;;;;;8.19;64.99;96738.84;5050855;28;20139;-72
2020/12/03 12:13:15;;;;;;;6.68;4.20;;;;;;;7.88;65.87;96729.78;5039981;28;20037;-73
2020/12/03 12:15:41;;;;;;;8.00;4.32;;;;;;;7.90;65.31;96729.72;5043239;28;20052;-72